createdAt,value
2022-11-08T00:00:07.366Z,78.47
2022-11-08T00:00:17.479Z,78.47
2022-11-08T00:00:27.174Z,78.47
2022-11-08T00:00:37.331Z,78.36
2022-11-08T00:00:47.248Z,78.36
2022-11-08T00:00:57.258Z,78.36
2022-11-08T00:01:07.259Z,78.36
2022-11-08T00:01:17.381Z,78.36
2022-11-08T00:01:27.397Z,78.36
2022-11-08T00:01:37.504Z,78.36
2022-11-08T00:01:47.557Z,78.36
2022-11-08T00:01:57.453Z,78.47
2022-11-08T00:02:07.449Z,78.47
2022-11-08T00:02:17.290Z,78.57
2022-11-08T00:02:27.368Z,78.57
2022-11-08T00:02:37.561Z,78.57
2022-11-08T00:02:47.515Z,78.57
2022-11-08T00:02:57.524Z,78.57
2022-11-08T00:03:07.458Z,78.47
2022-11-08T00:03:17.404Z,78.47
2022-11-08T00:03:27.174Z,78.47
2022-11-08T00:03:37.476Z,78.47
2022-11-08T00:03:47.194Z,78.47
2022-11-08T00:03:57.358Z,78.47
2022-11-08T00:04:07.232Z,78.57
2022-11-08T00:04:17.191Z,78.57
2022-11-08T00:04:27.304Z,78.57
2022-11-08T00:04:37.167Z,78.57
2022-11-08T00:04:47.421Z,78.57
2022-11-08T00:04:57.354Z,78.57
2022-11-08T00:05:07.397Z,78.57
2022-11-08T00:05:17.268Z,78.57
2022-11-08T00:05:27.370Z,78.57
2022-11-08T00:05:37.299Z,78.57
2022-11-08T00:05:47.300Z,78.57
2022-11-08T00:05:57.188Z,78.57
2022-11-08T00:06:07.420Z,78.57
2022-11-08T00:06:17.439Z,78.57
2022-11-08T00:06:27.184Z,78.57
2022-11-08T00:06:37.201Z,78.57
2022-11-08T00:06:47.279Z,78.57
2022-11-08T00:06:57.349Z,78.67
2022-11-08T00:07:07.349Z,78.67
2022-11-08T00:07:17.180Z,78.67
2022-11-08T00:07:27.411Z,78.67
2022-11-08T00:07:37.264Z,78.71
2022-11-08T00:07:47.230Z,78.71
2022-11-08T00:07:57.202Z,78.57
2022-11-08T00:08:07.270Z,78.67
2022-11-08T00:08:17.596Z,78.67
2022-11-08T00:08:27.434Z,78.71
2022-11-08T00:08:37.260Z,78.67
2022-11-08T00:08:47.271Z,78.67
2022-11-08T00:08:57.354Z,78.67
2022-11-08T00:09:07.345Z,78.57
2022-11-08T00:09:17.428Z,78.57
2022-11-08T00:09:27.383Z,78.57
2022-11-08T00:09:37.260Z,78.47
2022-11-08T00:09:47.212Z,78.57
2022-11-08T00:09:57.383Z,78.57
2022-11-08T00:10:07.167Z,78.57
2022-11-08T00:10:17.383Z,78.61
2022-11-08T00:10:27.408Z,78.47
2022-11-08T00:10:37.371Z,78.47
2022-11-08T00:10:47.168Z,78.47
2022-11-08T00:10:57.442Z,78.50
2022-11-08T00:11:07.263Z,78.50
2022-11-08T00:11:17.425Z,78.47
2022-11-08T00:11:27.230Z,78.50
2022-11-08T00:11:37.351Z,78.47
2022-11-08T00:11:47.467Z,78.40
2022-11-08T00:11:57.435Z,78.36
2022-11-08T00:12:07.263Z,78.36
2022-11-08T00:12:17.310Z,78.36
2022-11-08T00:12:27.299Z,78.40
2022-11-08T00:12:37.190Z,78.36
2022-11-08T00:12:47.304Z,78.40
2022-11-08T00:12:57.496Z,78.50
2022-11-08T00:13:07.368Z,78.50
2022-11-08T00:13:17.179Z,78.50
2022-11-08T00:13:27.425Z,78.50
2022-11-08T00:13:37.369Z,78.57
2022-11-08T00:13:47.445Z,78.61
2022-11-08T00:13:57.369Z,78.61
2022-11-08T00:14:07.398Z,78.61
2022-11-08T00:14:17.410Z,78.71
2022-11-08T00:14:27.174Z,78.71
2022-11-08T00:14:37.296Z,78.71
2022-11-08T00:14:47.334Z,78.67
2022-11-08T00:14:57.350Z,78.67
2022-11-08T00:15:07.305Z,78.67
2022-11-08T00:15:17.348Z,78.61
2022-11-08T00:15:27.240Z,78.61
2022-11-08T00:15:37.405Z,78.57
2022-11-08T00:15:47.187Z,78.61
2022-11-08T00:15:57.367Z,78.61
2022-11-08T00:16:07.178Z,78.61
2022-11-08T00:16:17.465Z,78.57
2022-11-08T00:16:27.358Z,78.47
2022-11-08T00:16:37.445Z,78.50
2022-11-08T00:16:47.344Z,78.47
2022-11-08T00:16:57.327Z,78.47
2022-11-08T00:17:07.451Z,78.40
2022-11-08T00:17:17.264Z,78.36
2022-11-08T00:17:27.430Z,78.40
2022-11-08T00:17:37.214Z,78.40
2022-11-08T00:17:47.367Z,78.40
2022-11-08T00:17:57.910Z,78.40
2022-11-08T00:18:07.466Z,78.40
2022-11-08T00:18:17.567Z,78.36
2022-11-08T00:18:27.175Z,78.36
2022-11-08T00:18:37.271Z,78.30
2022-11-08T00:18:47.406Z,78.27
2022-11-08T00:18:57.281Z,78.30
2022-11-08T00:19:07.427Z,78.30
2022-11-08T00:19:17.267Z,78.30
2022-11-08T00:19:27.212Z,78.30
2022-11-08T00:19:37.340Z,78.30
2022-11-08T00:19:47.232Z,78.30
2022-11-08T00:19:57.175Z,78.30
2022-11-08T00:20:07.291Z,78.40
2022-11-08T00:20:17.230Z,78.40
2022-11-08T00:20:27.198Z,78.40
2022-11-08T00:20:37.388Z,78.30
2022-11-08T00:20:47.362Z,78.30
2022-11-08T00:20:57.277Z,78.30
2022-11-08T00:21:07.262Z,78.30
2022-11-08T00:21:17.170Z,78.30
2022-11-08T00:21:27.233Z,78.30
2022-11-08T00:21:37.295Z,78.20
2022-11-08T00:21:47.365Z,78.20
2022-11-08T00:21:57.237Z,78.20
2022-11-08T00:22:07.214Z,78.20
2022-11-08T00:22:17.478Z,78.20
2022-11-08T00:22:27.400Z,78.30
2022-11-08T00:22:37.309Z,78.20
2022-11-08T00:22:47.202Z,78.30
2022-11-08T00:22:57.251Z,78.30
2022-11-08T00:23:07.427Z,78.40
2022-11-08T00:23:17.251Z,78.40
2022-11-08T00:23:27.280Z,78.40
2022-11-08T00:23:37.424Z,78.50
2022-11-08T00:23:47.168Z,78.50
2022-11-08T00:23:57.392Z,78.50
2022-11-08T00:24:07.473Z,78.50
2022-11-08T00:24:17.319Z,78.50
2022-11-08T00:24:27.387Z,78.50
2022-11-08T00:24:37.233Z,78.61
2022-11-08T00:24:47.197Z,78.61
2022-11-08T00:24:57.437Z,78.61
2022-11-08T00:25:07.277Z,78.61
2022-11-08T00:25:17.349Z,78.61
2022-11-08T00:25:27.211Z,78.61
2022-11-08T00:25:37.166Z,78.61
2022-11-08T00:25:47.381Z,78.61
2022-11-08T00:25:57.194Z,78.61
2022-11-08T00:26:07.231Z,78.61
2022-11-08T00:26:17.431Z,78.61
2022-11-08T00:26:27.195Z,78.61
2022-11-08T00:26:37.271Z,78.61
2022-11-08T00:26:47.402Z,78.61
2022-11-08T00:26:57.485Z,78.71
2022-11-08T00:27:07.317Z,78.71
2022-11-08T00:27:17.251Z,78.71
2022-11-08T00:27:27.399Z,78.71
2022-11-08T00:27:37.351Z,78.71
2022-11-08T00:27:47.191Z,78.71
2022-11-08T00:27:57.437Z,78.71
2022-11-08T00:28:07.481Z,78.71
2022-11-08T00:28:17.530Z,78.71
2022-11-08T00:28:27.332Z,78.81
2022-11-08T00:28:37.209Z,78.81
2022-11-08T00:28:47.305Z,78.81
2022-11-08T00:28:57.224Z,78.81
2022-11-08T00:29:07.371Z,78.81
2022-11-08T00:29:17.242Z,78.81
2022-11-08T00:29:27.409Z,78.71
2022-11-08T00:29:37.307Z,78.71
2022-11-08T00:29:47.401Z,78.71
2022-11-08T00:29:57.402Z,78.71
2022-11-08T00:30:07.441Z,78.71
2022-11-08T00:30:17.271Z,78.71
2022-11-08T00:30:27.283Z,78.71
2022-11-08T00:30:37.221Z,78.71
2022-11-08T00:30:47.329Z,78.81
2022-11-08T00:30:57.237Z,78.81
2022-11-08T00:31:07.190Z,78.81
2022-11-08T00:31:17.338Z,78.71
2022-11-08T00:31:27.258Z,78.81
2022-11-08T00:31:37.407Z,78.81
2022-11-08T00:31:47.213Z,78.81
2022-11-08T00:31:57.325Z,78.81
2022-11-08T00:32:07.288Z,78.81
2022-11-08T00:32:17.423Z,78.81
2022-11-08T00:32:27.184Z,78.92
2022-11-08T00:32:37.248Z,78.92
2022-11-08T00:32:47.159Z,78.81
2022-11-08T00:32:57.421Z,78.92
2022-11-08T00:33:07.168Z,78.92
2022-11-08T00:33:17.483Z,78.92
2022-11-08T00:33:27.330Z,78.92
2022-11-08T00:33:37.413Z,78.92
2022-11-08T00:33:47.172Z,78.92
2022-11-08T00:33:57.246Z,78.92
2022-11-08T00:34:07.436Z,78.96
2022-11-08T00:34:17.187Z,79.05
2022-11-08T00:34:27.371Z,79.02
2022-11-08T00:34:37.368Z,79.05
2022-11-08T00:34:47.300Z,79.05
2022-11-08T00:34:57.170Z,79.05
2022-11-08T00:35:07.372Z,79.05
2022-11-08T00:35:17.278Z,79.16
2022-11-08T00:35:27.299Z,79.16
2022-11-08T00:35:37.332Z,79.16
2022-11-08T00:35:47.353Z,79.16
2022-11-08T00:35:57.193Z,79.16
2022-11-08T00:36:07.337Z,79.16
2022-11-08T00:36:17.311Z,79.16
2022-11-08T00:36:27.280Z,79.16
2022-11-08T00:36:37.266Z,79.16
2022-11-08T00:36:47.344Z,79.16
2022-11-08T00:36:57.372Z,79.16
2022-11-08T00:37:07.418Z,79.16
2022-11-08T00:37:17.284Z,79.16
2022-11-08T00:37:27.332Z,79.16
2022-11-08T00:37:37.168Z,79.16
2022-11-08T00:37:47.400Z,79.16
2022-11-08T00:37:57.452Z,79.16
2022-11-08T00:38:07.252Z,79.16
2022-11-08T00:38:17.629Z,79.16
2022-11-08T00:38:27.403Z,79.16
2022-11-08T00:38:37.186Z,79.05
2022-11-08T00:38:47.238Z,79.16
2022-11-08T00:38:57.446Z,79.05
2022-11-08T00:39:07.396Z,79.05
2022-11-08T00:39:17.188Z,79.05
2022-11-08T00:39:27.480Z,79.05
2022-11-08T00:39:37.363Z,79.05
2022-11-08T00:39:47.320Z,79.05
2022-11-08T00:39:57.183Z,79.05
2022-11-08T00:40:07.255Z,79.05
2022-11-08T00:40:17.414Z,79.05
2022-11-08T00:40:27.236Z,79.05
2022-11-08T00:40:37.353Z,79.05
2022-11-08T00:40:47.498Z,79.05
2022-11-08T00:40:57.369Z,79.05
2022-11-08T00:41:07.467Z,79.05
2022-11-08T00:41:17.219Z,79.05
2022-11-08T00:41:27.418Z,79.05
2022-11-08T00:41:37.174Z,79.05
2022-11-08T00:41:47.445Z,79.05
2022-11-08T00:41:57.360Z,79.05
2022-11-08T00:42:07.331Z,78.96
2022-11-08T00:42:17.420Z,78.96
2022-11-08T00:42:27.236Z,78.96
2022-11-08T00:42:37.240Z,78.96
2022-11-08T00:42:47.376Z,78.96
2022-11-08T00:42:57.316Z,78.96
2022-11-08T00:43:07.329Z,78.96
2022-11-08T00:43:17.414Z,78.96
2022-11-08T00:43:27.159Z,78.96
2022-11-08T00:43:37.189Z,78.96
2022-11-08T00:43:47.237Z,78.96
2022-11-08T00:43:57.455Z,78.96
2022-11-08T00:44:07.173Z,78.96
2022-11-08T00:44:17.376Z,78.96
2022-11-08T00:44:27.456Z,78.96
2022-11-08T00:44:37.317Z,78.85
2022-11-08T00:44:47.343Z,78.85
2022-11-08T00:44:57.201Z,78.85
2022-11-08T00:45:07.166Z,78.85
2022-11-08T00:45:17.387Z,78.85
2022-11-08T00:45:27.294Z,78.85
2022-11-08T00:45:37.372Z,78.85
2022-11-08T00:45:47.184Z,78.85
2022-11-08T00:45:57.433Z,78.85
2022-11-08T00:46:07.221Z,78.85
2022-11-08T00:46:17.182Z,78.85
2022-11-08T00:46:27.392Z,78.85
2022-11-08T00:46:37.181Z,78.85
2022-11-08T00:46:47.261Z,78.85
2022-11-08T00:46:57.326Z,78.85
2022-11-08T00:47:07.233Z,78.96
2022-11-08T00:47:17.242Z,78.96
2022-11-08T00:47:27.243Z,78.96
2022-11-08T00:47:37.403Z,78.96
2022-11-08T00:47:47.347Z,78.96
2022-11-08T00:47:57.371Z,78.96
2022-11-08T00:48:07.362Z,78.96
2022-11-08T00:48:17.727Z,78.96
2022-11-08T00:48:27.381Z,78.96
2022-11-08T00:48:37.397Z,78.96
2022-11-08T00:48:47.196Z,78.96
2022-11-08T00:48:57.239Z,78.96
2022-11-08T00:49:07.283Z,78.85
2022-11-08T00:49:17.446Z,78.85
2022-11-08T00:49:27.335Z,78.85
2022-11-08T00:49:37.389Z,78.85
2022-11-08T00:49:47.188Z,78.85
2022-11-08T00:49:57.214Z,78.85
2022-11-08T00:50:07.417Z,78.85
2022-11-08T00:50:17.171Z,78.85
2022-11-08T00:50:27.469Z,78.85
2022-11-08T00:50:37.321Z,78.96
2022-11-08T00:50:47.172Z,78.85
2022-11-08T00:50:57.380Z,78.96
2022-11-08T00:51:07.245Z,78.96
2022-11-08T00:51:17.203Z,78.96
2022-11-08T00:51:27.282Z,79.05
2022-11-08T00:51:37.387Z,79.05
2022-11-08T00:51:47.295Z,79.05
2022-11-08T00:51:57.288Z,78.96
2022-11-08T00:52:07.396Z,78.96
2022-11-08T00:52:17.330Z,78.96
2022-11-08T00:52:27.372Z,78.96
2022-11-08T00:52:37.399Z,78.96
2022-11-08T00:52:47.183Z,78.96
2022-11-08T00:52:57.187Z,79.05
2022-11-08T00:53:07.170Z,79.05
2022-11-08T00:53:17.454Z,79.05
2022-11-08T00:53:27.315Z,78.96
2022-11-08T00:53:37.229Z,78.96
2022-11-08T00:53:47.353Z,78.96
2022-11-08T00:53:57.385Z,78.96
2022-11-08T00:54:07.287Z,78.96
2022-11-08T00:54:17.438Z,78.96
2022-11-08T00:54:27.268Z,78.96
2022-11-08T00:54:37.321Z,78.96
2022-11-08T00:54:47.346Z,78.96
2022-11-08T00:54:57.216Z,78.96
2022-11-08T00:55:07.231Z,79.05
2022-11-08T00:55:17.207Z,79.05
2022-11-08T00:55:27.162Z,79.05
2022-11-08T00:55:37.266Z,79.05
2022-11-08T00:55:47.280Z,79.05
2022-11-08T00:55:57.168Z,79.16
2022-11-08T00:56:07.419Z,79.16
2022-11-08T00:56:17.380Z,79.05
2022-11-08T00:56:27.252Z,79.05
2022-11-08T00:56:37.424Z,78.96
2022-11-08T00:56:47.208Z,78.96
2022-11-08T00:56:57.481Z,78.96
2022-11-08T00:57:07.327Z,79.05
2022-11-08T00:57:17.335Z,79.05
2022-11-08T00:57:46.755Z,79.05
2022-11-08T00:57:54.027Z,79.05
2022-11-08T00:57:59.057Z,79.05
2022-11-08T00:58:00.078Z,78.96
2022-11-08T00:58:07.218Z,79.05
2022-11-08T00:58:17.630Z,79.05
2022-11-08T00:58:27.975Z,79.05
2022-11-08T00:58:37.390Z,79.05
2022-11-08T00:58:47.324Z,79.05
2022-11-08T00:58:57.468Z,79.05
2022-11-08T00:59:07.405Z,79.05
2022-11-08T00:59:17.186Z,79.05
2022-11-08T00:59:27.442Z,79.05
2022-11-08T00:59:37.286Z,79.05
2022-11-08T00:59:47.382Z,78.96
2022-11-08T00:59:57.190Z,79.05
2022-11-08T01:00:07.480Z,79.05
2022-11-08T01:00:17.391Z,79.05
2022-11-08T01:00:27.279Z,79.05
2022-11-08T01:00:37.240Z,79.05
2022-11-08T01:00:47.407Z,79.05
2022-11-08T01:00:57.568Z,79.05
2022-11-08T01:01:07.451Z,79.05
2022-11-08T01:01:17.322Z,79.16
2022-11-08T01:01:27.432Z,79.16
2022-11-08T01:01:37.285Z,79.16
2022-11-08T01:01:47.562Z,79.16
2022-11-08T01:01:57.254Z,79.16
2022-11-08T01:02:07.472Z,79.16
2022-11-08T01:02:17.247Z,79.16
2022-11-08T01:02:27.416Z,79.16
2022-11-08T01:02:37.327Z,79.16
2022-11-08T01:02:47.357Z,79.05
2022-11-08T01:02:57.186Z,79.05
2022-11-08T01:03:07.261Z,79.16
2022-11-08T01:03:17.157Z,79.16
2022-11-08T01:03:27.338Z,79.16
2022-11-08T01:03:37.250Z,79.16
2022-11-08T01:03:47.410Z,79.26
2022-11-08T01:03:57.394Z,79.26
2022-11-08T01:04:07.453Z,79.26
2022-11-08T01:04:17.279Z,79.36
2022-11-08T01:04:27.262Z,79.36
2022-11-08T01:04:37.387Z,79.36
2022-11-08T01:04:47.290Z,79.36
2022-11-08T01:04:57.267Z,79.36
2022-11-08T01:05:07.402Z,79.36
2022-11-08T01:05:17.435Z,79.36
2022-11-08T01:05:27.231Z,79.40
2022-11-08T01:05:37.283Z,79.26
2022-11-08T01:05:47.178Z,79.36
2022-11-08T01:05:57.471Z,79.36
2022-11-08T01:06:07.228Z,79.50
2022-11-08T01:06:17.471Z,79.50
2022-11-08T01:06:27.412Z,79.47
2022-11-08T01:06:37.300Z,79.50
2022-11-08T01:06:47.304Z,79.50
2022-11-08T01:06:57.404Z,79.47
2022-11-08T01:07:07.414Z,79.47
2022-11-08T01:07:17.287Z,79.50
2022-11-08T01:07:27.406Z,79.61
2022-11-08T01:07:37.186Z,79.61
2022-11-08T01:07:47.203Z,79.71
2022-11-08T01:07:57.420Z,79.71
2022-11-08T01:08:07.188Z,79.71
2022-11-08T01:08:17.616Z,79.71
2022-11-08T01:08:27.429Z,79.71
2022-11-08T01:08:37.452Z,79.71
2022-11-08T01:08:47.248Z,79.71
2022-11-08T01:08:57.195Z,79.71
2022-11-08T01:09:07.267Z,79.71
2022-11-08T01:09:17.332Z,79.71
2022-11-08T01:09:27.179Z,79.71
2022-11-08T01:09:37.267Z,79.71
2022-11-08T01:09:47.229Z,79.71
2022-11-08T01:09:57.193Z,79.71
2022-11-08T01:10:07.297Z,79.71
2022-11-08T01:10:17.311Z,79.71
2022-11-08T01:10:27.266Z,79.71
2022-11-08T01:10:37.430Z,79.71
2022-11-08T01:10:47.443Z,79.71
2022-11-08T01:10:57.307Z,79.71
2022-11-08T01:11:07.366Z,79.71
2022-11-08T01:11:17.205Z,79.81
2022-11-08T01:11:27.508Z,79.81
2022-11-08T01:11:37.197Z,79.81
2022-11-08T01:11:47.353Z,79.81
2022-11-08T01:11:57.309Z,79.81
2022-11-08T01:12:07.222Z,79.81
2022-11-08T01:12:17.176Z,79.91
2022-11-08T01:12:27.396Z,79.91
2022-11-08T01:12:37.321Z,80.05
2022-11-08T01:12:47.395Z,80.02
2022-11-08T01:12:57.152Z,80.02
2022-11-08T01:13:07.294Z,80.05
2022-11-08T01:13:17.397Z,80.02
2022-11-08T01:13:27.438Z,80.02
2022-11-08T01:13:37.210Z,80.02
2022-11-08T01:13:47.455Z,80.02
2022-11-08T01:13:57.249Z,80.02
2022-11-08T01:14:07.255Z,80.12
2022-11-08T01:14:17.366Z,80.12
2022-11-08T01:14:27.232Z,80.12
2022-11-08T01:14:37.455Z,80.22
2022-11-08T01:14:47.182Z,80.22
2022-11-08T01:14:57.465Z,80.22
2022-11-08T01:15:07.246Z,80.26
2022-11-08T01:15:17.496Z,80.33
2022-11-08T01:15:27.536Z,80.33
2022-11-08T01:15:37.364Z,80.36
2022-11-08T01:15:47.393Z,80.33
2022-11-08T01:15:57.415Z,80.36
2022-11-08T01:16:07.228Z,80.36
2022-11-08T01:16:17.242Z,80.33
2022-11-08T01:16:27.295Z,80.36
2022-11-08T01:16:37.292Z,80.33
2022-11-08T01:16:47.345Z,80.33
2022-11-08T01:16:57.246Z,80.47
2022-11-08T01:17:07.161Z,80.47
2022-11-08T01:17:17.202Z,80.47
2022-11-08T01:17:27.378Z,80.47
2022-11-08T01:17:37.332Z,80.43
2022-11-08T01:17:47.590Z,80.47
2022-11-08T01:17:57.332Z,80.47
2022-11-08T01:18:07.298Z,80.47
2022-11-08T01:18:17.697Z,80.47
2022-11-08T01:18:27.444Z,80.36
2022-11-08T01:18:37.321Z,80.47
2022-11-08T01:18:47.217Z,80.43
2022-11-08T01:18:57.415Z,80.47
2022-11-08T01:19:07.195Z,80.43
2022-11-08T01:19:17.192Z,80.47
2022-11-08T01:19:27.294Z,80.43
2022-11-08T01:19:37.358Z,80.47
2022-11-08T01:19:47.168Z,80.47
2022-11-08T01:19:57.195Z,80.47
2022-11-08T01:20:07.347Z,80.47
2022-11-08T01:20:17.360Z,80.47
2022-11-08T01:20:27.235Z,80.47
2022-11-08T01:20:37.444Z,80.43
2022-11-08T01:20:47.330Z,80.47
2022-11-08T01:20:57.385Z,80.43
2022-11-08T01:21:07.279Z,80.47
2022-11-08T01:21:17.464Z,80.47
2022-11-08T01:21:27.413Z,80.47
2022-11-08T01:21:37.186Z,80.43
2022-11-08T01:21:47.213Z,80.43
2022-11-08T01:21:57.392Z,80.47
2022-11-08T01:22:07.254Z,80.36
2022-11-08T01:22:17.416Z,80.36
2022-11-08T01:22:27.165Z,80.47
2022-11-08T01:22:37.180Z,80.43
2022-11-08T01:22:47.215Z,80.47
2022-11-08T01:22:57.358Z,80.47
2022-11-08T01:23:07.455Z,80.47
2022-11-08T01:23:17.219Z,80.43
2022-11-08T01:23:27.244Z,80.43
2022-11-08T01:23:37.466Z,80.43
2022-11-08T01:23:47.351Z,80.47
2022-11-08T01:23:57.208Z,80.47
2022-11-08T01:24:07.475Z,80.47
2022-11-08T01:24:17.258Z,80.47
2022-11-08T01:24:27.343Z,80.43
2022-11-08T01:24:37.315Z,80.57
2022-11-08T01:24:47.384Z,80.47
2022-11-08T01:24:57.255Z,80.43
2022-11-08T01:25:07.241Z,80.57
2022-11-08T01:25:17.223Z,80.57
2022-11-08T01:25:27.282Z,80.53
2022-11-08T01:25:37.351Z,80.53
2022-11-08T01:25:47.433Z,80.43
2022-11-08T01:25:57.445Z,80.43
2022-11-08T01:26:07.259Z,80.33
2022-11-08T01:26:17.367Z,80.43
2022-11-08T01:26:27.335Z,80.43
2022-11-08T01:26:37.379Z,80.43
2022-11-08T01:26:47.448Z,80.43
2022-11-08T01:26:57.247Z,80.47
2022-11-08T01:27:07.200Z,80.36
2022-11-08T01:27:17.419Z,80.33
2022-11-08T01:27:27.259Z,80.36
2022-11-08T01:27:37.219Z,80.33
2022-11-08T01:27:47.219Z,80.33
2022-11-08T01:27:57.234Z,80.36
2022-11-08T01:28:07.350Z,80.33
2022-11-08T01:28:17.857Z,80.22
2022-11-08T01:28:27.406Z,80.22
2022-11-08T01:28:37.400Z,80.33
2022-11-08T01:28:47.164Z,80.33
2022-11-08T01:28:57.187Z,80.33
2022-11-08T01:29:07.308Z,80.36
2022-11-08T01:29:17.190Z,80.36
2022-11-08T01:29:27.165Z,80.22
2022-11-08T01:29:37.289Z,80.22
2022-11-08T01:29:47.173Z,80.22
2022-11-08T01:29:57.160Z,80.22
2022-11-08T01:30:07.301Z,80.22
2022-11-08T01:30:17.406Z,80.12
2022-11-08T01:30:27.375Z,80.22
2022-11-08T01:30:37.462Z,80.26
2022-11-08T01:30:47.384Z,80.22
2022-11-08T01:30:57.291Z,80.26
2022-11-08T01:31:07.370Z,80.22
2022-11-08T01:31:17.280Z,80.22
2022-11-08T01:31:27.389Z,80.22
2022-11-08T01:31:37.202Z,80.12
2022-11-08T01:31:47.430Z,80.22
2022-11-08T01:31:57.466Z,80.22
2022-11-08T01:32:07.302Z,80.22
2022-11-08T01:32:17.239Z,80.12
2022-11-08T01:32:27.376Z,80.12
2022-11-08T01:32:37.382Z,80.12
2022-11-08T01:32:47.415Z,80.12
2022-11-08T01:32:57.414Z,80.12
2022-11-08T01:33:07.316Z,80.12
2022-11-08T01:33:17.410Z,80.22
2022-11-08T01:33:27.335Z,80.22
2022-11-08T01:33:37.414Z,80.22
2022-11-08T01:33:51.232Z,80.22
2022-11-08T01:33:57.267Z,80.22
2022-11-08T01:34:07.254Z,80.22
2022-11-08T01:34:17.347Z,80.12
2022-11-08T01:34:27.273Z,80.12
2022-11-08T01:34:37.318Z,80.12
2022-11-08T01:34:47.188Z,80.12
2022-11-08T01:34:57.346Z,80.12
2022-11-08T01:35:07.417Z,80.12
2022-11-08T01:35:17.368Z,80.12
2022-11-08T01:35:27.365Z,80.12
2022-11-08T01:35:37.316Z,80.02
2022-11-08T01:35:47.294Z,80.12
2022-11-08T01:35:57.154Z,80.12
2022-11-08T01:36:07.415Z,80.12
2022-11-08T01:36:17.418Z,80.12
2022-11-08T01:36:27.396Z,80.12
2022-11-08T01:36:37.197Z,80.02
2022-11-08T01:36:47.367Z,80.02
2022-11-08T01:36:57.160Z,80.02
2022-11-08T01:37:07.242Z,80.02
2022-11-08T01:37:17.294Z,80.02
2022-11-08T01:37:27.359Z,80.02
2022-11-08T01:37:37.406Z,80.02
2022-11-08T01:37:47.244Z,80.02
2022-11-08T01:37:57.390Z,80.02
2022-11-08T01:38:07.342Z,80.12
2022-11-08T01:38:17.604Z,80.12
2022-11-08T01:38:27.290Z,80.12
2022-11-08T01:38:37.447Z,80.12
2022-11-08T01:38:47.272Z,80.02
2022-11-08T01:38:57.173Z,80.02
2022-11-08T01:39:07.457Z,80.02
2022-11-08T01:39:17.278Z,80.02
2022-11-08T01:39:27.352Z,80.02
2022-11-08T01:39:37.316Z,80.02
2022-11-08T01:39:47.324Z,80.02
2022-11-08T01:39:57.404Z,80.02
2022-11-08T01:40:07.266Z,80.02
2022-11-08T01:40:17.505Z,80.02
2022-11-08T01:40:27.232Z,80.02
2022-11-08T01:40:37.442Z,79.91
2022-11-08T01:40:47.461Z,79.91
2022-11-08T01:40:57.322Z,79.91
2022-11-08T01:41:07.182Z,80.02
2022-11-08T01:41:17.413Z,80.02
2022-11-08T01:41:27.382Z,80.02
2022-11-08T01:41:37.340Z,80.02
2022-11-08T01:41:47.189Z,80.02
2022-11-08T01:41:57.407Z,80.02
2022-11-08T01:42:07.471Z,80.02
2022-11-08T01:42:17.288Z,80.02
2022-11-08T01:42:27.411Z,80.02
2022-11-08T01:42:37.286Z,80.02
2022-11-08T01:42:47.219Z,80.02
2022-11-08T01:42:57.478Z,80.02
2022-11-08T01:43:07.272Z,79.91
2022-11-08T01:43:17.199Z,79.91
2022-11-08T01:43:27.230Z,79.91
2022-11-08T01:43:37.176Z,79.91
2022-11-08T01:43:47.276Z,79.91
2022-11-08T01:43:57.191Z,79.91
2022-11-08T01:44:07.175Z,79.91
2022-11-08T01:44:17.174Z,79.91
2022-11-08T01:44:27.434Z,79.91
2022-11-08T01:44:37.263Z,79.91
2022-11-08T01:44:47.214Z,80.02
2022-11-08T01:44:57.480Z,80.02
2022-11-08T01:45:07.199Z,80.02
2022-11-08T01:45:17.431Z,80.02
2022-11-08T01:45:27.296Z,80.02
2022-11-08T01:45:37.392Z,80.02
2022-11-08T01:45:47.233Z,80.02
2022-11-08T01:45:57.221Z,80.02
2022-11-08T01:46:07.421Z,80.02
2022-11-08T01:46:17.225Z,80.02
2022-11-08T01:46:27.378Z,80.02
2022-11-08T01:46:37.439Z,80.02
2022-11-08T01:46:47.328Z,80.02
2022-11-08T01:46:57.369Z,80.02
2022-11-08T01:47:07.268Z,80.02
2022-11-08T01:47:17.376Z,80.02
2022-11-08T01:47:27.329Z,80.02
2022-11-08T01:47:37.432Z,80.02
2022-11-08T01:47:47.374Z,80.02
2022-11-08T01:47:57.369Z,80.02
2022-11-08T01:48:07.358Z,80.02
2022-11-08T01:48:17.409Z,80.02
2022-11-08T01:48:27.303Z,80.02
2022-11-08T01:48:37.155Z,79.91
2022-11-08T01:48:47.272Z,79.91
2022-11-08T01:48:57.419Z,79.91
2022-11-08T01:49:07.378Z,79.91
2022-11-08T01:49:17.296Z,79.91
2022-11-08T01:49:27.292Z,79.91
2022-11-08T01:49:37.157Z,79.91
2022-11-08T01:49:47.351Z,79.91
2022-11-08T01:49:57.265Z,79.91
2022-11-08T01:50:07.344Z,79.91
2022-11-08T01:50:17.256Z,79.81
2022-11-08T01:50:27.445Z,79.81
2022-11-08T01:50:37.330Z,79.91
2022-11-08T01:50:47.159Z,79.91
2022-11-08T01:50:57.416Z,79.91
2022-11-08T01:51:07.159Z,79.91
2022-11-08T01:51:17.406Z,79.91
2022-11-08T01:51:27.210Z,79.81
2022-11-08T01:51:37.321Z,79.81
2022-11-08T01:51:47.240Z,79.81
2022-11-08T01:51:57.350Z,79.81
2022-11-08T01:52:07.350Z,79.81
2022-11-08T01:52:17.427Z,79.81
2022-11-08T01:52:27.352Z,79.71
2022-11-08T01:52:37.329Z,79.71
2022-11-08T01:52:47.403Z,79.71
2022-11-08T01:52:57.350Z,79.71
2022-11-08T01:53:07.438Z,79.61
2022-11-08T01:53:17.385Z,79.61
2022-11-08T01:53:27.390Z,79.61
2022-11-08T01:53:37.205Z,79.50
2022-11-08T01:53:47.197Z,79.61
2022-11-08T01:53:57.250Z,79.61
2022-11-08T01:54:07.163Z,79.61
2022-11-08T01:54:17.196Z,79.61
2022-11-08T01:54:27.234Z,79.50
2022-11-08T01:54:37.353Z,79.50
2022-11-08T01:54:47.400Z,79.50
2022-11-08T01:54:57.182Z,79.50
2022-11-08T01:55:07.167Z,79.50
2022-11-08T01:55:17.381Z,79.40
2022-11-08T01:55:27.368Z,79.40
2022-11-08T01:55:37.366Z,79.40
2022-11-08T01:55:47.430Z,79.40
2022-11-08T01:55:57.185Z,79.40
2022-11-08T01:56:07.395Z,79.30
2022-11-08T01:56:17.506Z,79.30
2022-11-08T01:56:27.277Z,79.40
2022-11-08T01:56:37.465Z,79.40
2022-11-08T01:56:47.442Z,79.40
2022-11-08T01:56:57.449Z,79.40
2022-11-08T01:57:07.337Z,79.40
2022-11-08T01:57:17.279Z,79.40
2022-11-08T01:57:27.303Z,79.40
2022-11-08T01:57:37.241Z,79.40
2022-11-08T01:57:47.377Z,79.40
2022-11-08T01:57:57.267Z,79.40
2022-11-08T01:58:07.189Z,79.40
2022-11-08T01:58:17.674Z,79.40
2022-11-08T01:58:27.338Z,79.40
2022-11-08T01:58:37.471Z,79.40
2022-11-08T01:58:47.424Z,79.40
2022-11-08T01:58:57.350Z,79.40
2022-11-08T01:59:07.431Z,79.40
2022-11-08T01:59:17.179Z,79.40
2022-11-08T01:59:27.242Z,79.40
2022-11-08T01:59:37.155Z,79.40
2022-11-08T01:59:47.168Z,79.40
2022-11-08T01:59:57.247Z,79.40
2022-11-08T02:00:07.291Z,79.40
2022-11-08T02:00:17.265Z,79.40
2022-11-08T02:00:27.345Z,79.40
2022-11-08T02:00:37.247Z,79.40
2022-11-08T02:00:47.251Z,79.40
2022-11-08T02:00:57.346Z,79.40
2022-11-08T02:01:07.427Z,79.40
2022-11-08T02:01:17.200Z,79.40
2022-11-08T02:01:27.610Z,79.40
2022-11-08T02:01:37.629Z,79.40
2022-11-08T02:01:47.442Z,79.40
2022-11-08T02:01:57.292Z,79.40
2022-11-08T02:02:07.505Z,79.40
2022-11-08T02:02:17.441Z,79.40
2022-11-08T02:02:27.367Z,79.40
2022-11-08T02:02:37.404Z,79.40
2022-11-08T02:02:47.306Z,79.50
2022-11-08T02:02:57.263Z,79.50
2022-11-08T02:03:07.317Z,79.54
2022-11-08T02:03:17.192Z,79.50
2022-11-08T02:03:27.334Z,79.54
2022-11-08T02:03:37.300Z,79.50
2022-11-08T02:03:47.397Z,79.50
2022-11-08T02:03:57.425Z,79.61
2022-11-08T02:04:07.177Z,79.64
2022-11-08T02:04:17.437Z,79.61
2022-11-08T02:04:27.411Z,79.64
2022-11-08T02:04:37.224Z,79.64
2022-11-08T02:04:47.227Z,79.64
2022-11-08T02:04:57.433Z,79.64
2022-11-08T02:05:07.277Z,79.64
2022-11-08T02:05:17.158Z,79.64
2022-11-08T02:05:27.179Z,79.64
2022-11-08T02:05:37.358Z,79.64
2022-11-08T02:05:47.340Z,79.64
2022-11-08T02:05:57.228Z,79.64
2022-11-08T02:06:07.343Z,79.64
2022-11-08T02:06:17.288Z,79.64
2022-11-08T02:06:27.194Z,79.64
2022-11-08T02:06:37.330Z,79.75
2022-11-08T02:06:47.437Z,79.75
2022-11-08T02:06:57.296Z,79.64
2022-11-08T02:07:07.347Z,79.75
2022-11-08T02:07:17.430Z,79.75
2022-11-08T02:07:27.374Z,79.75
2022-11-08T02:07:37.203Z,79.75
2022-11-08T02:07:47.224Z,79.64
2022-11-08T02:07:57.478Z,79.75
2022-11-08T02:08:07.350Z,79.75
2022-11-08T02:08:17.644Z,79.75
2022-11-08T02:08:27.196Z,79.75
2022-11-08T02:08:37.427Z,79.75
2022-11-08T02:08:47.429Z,79.75